Terminal Aerodrome Forecast
Issued by NWS Sterling, VA

Current Version | Previous Version | Graphics & Text | Print | Product List | Glossary On
Versions: 1 2 3 4 5 6 7 8 9 10 11 12 13 14 15 16 17 18 19 20 21 22
000
FTUS41 KLWX 191506 AAA
TAFIAD
TAF AMD
KIAD 191506Z 1915/2018 34006KT 3SM -RA OVC004
     FM191800 VRB04KT 3SM -SHRA OVC008
     FM200000 18009KT P6SM BKN008
     FM200600 20009KT P6SM OVC003
     FM201300 23009KT P6SM BKN008
     FM201400 25009KT P6SM BKN015
     FM201500 26010KT P6SM BKN025
     FM201600 27009KT P6SM BKN040=

USA.gov is the U.S. government's official web portal to all federal, state and local government web resources and services.